Varna, Bulgaria
Current Conditions -  °F | °C
As of 6:30 AM on Sunday 23 Nov 2014 (Local Time) from LBWN Reporting Station
Broken Clouds Broken Clouds  
Wind Chill: 34°   Ceiling: 4700
Heat Index: 39°   Visibility: 6mi
Dew Point: 30°   Wind: 7mph
Humidity: 70%   Direction: 310°NW
Pressure: 30.33"   Gusts: NA
Location:  43.21°N, 27.9°E
Report Text: LBWN 230330Z 31003MPS 280V350 9999 BKN047 04/M01 Q1027 NOSIG
Loading
Personal Weather Stations






























Interactive Weather Map New forecast layout! Learn more

10-Day Weather Forecast

Advertisements
Track Severe Weather on mobile